createdAt,value
2023-01-07T00:00:05.699Z,98603.13
2023-01-07T00:02:34.008Z,98601.53
2023-01-07T00:05:02.115Z,98604.16
2023-01-07T00:07:30.269Z,98604.97
2023-01-07T00:09:58.439Z,98597.63
2023-01-07T00:12:28.051Z,98597.41
2023-01-07T00:14:56.173Z,98593.75
2023-01-07T00:17:24.335Z,98590.09
2023-01-07T00:19:52.760Z,98578.75
2023-01-07T00:22:21.158Z,98573.25
2023-01-07T00:24:49.319Z,98550.56
2023-01-07T00:27:17.812Z,98540.47
2023-01-07T00:29:47.720Z,98541.06
2023-01-07T00:32:18.182Z,98576.34
2023-01-07T00:34:46.305Z,98584.25
2023-01-07T00:37:34.014Z,98582.06
2023-01-07T00:40:02.231Z,98584.31
2023-01-07T00:42:48.046Z,98586.56
2023-01-07T00:45:17.683Z,98591.38
2023-01-07T00:47:45.909Z,98588.34
2023-01-07T00:50:14.143Z,98583.38
2023-01-07T00:52:42.244Z,98578.78
2023-01-07T00:55:11.892Z,98583.31
2023-01-07T00:57:40.047Z,98569.97
2023-01-07T01:00:09.330Z,98575.69
2023-01-07T01:02:39.014Z,98588.06
2023-01-07T01:05:08.288Z,98587.47
2023-01-07T01:07:37.230Z,98585.84
2023-01-07T01:10:07.514Z,98583.22
2023-01-07T01:12:36.650Z,98570.06
2023-01-07T01:15:07.341Z,98576.34
2023-01-07T01:17:35.520Z,98575.56
2023-01-07T01:20:06.628Z,98568.47
2023-01-07T01:22:35.012Z,98568.66
2023-01-07T01:25:03.276Z,98566.44
2023-01-07T01:27:32.247Z,98569.88
2023-01-07T01:30:00.871Z,98564.84
2023-01-07T01:32:29.853Z,98564.63
2023-01-07T01:34:58.031Z,98564.03
2023-01-07T01:37:27.526Z,98561.00
2023-01-07T01:39:55.705Z,98557.75
2023-01-07T01:42:25.661Z,98572.75
2023-01-07T01:44:55.625Z,98574.16
2023-01-07T01:47:30.913Z,98573.13
2023-01-07T01:50:03.490Z,98561.00
2023-01-07T01:52:38.961Z,98553.91
2023-01-07T01:55:09.425Z,98558.97
2023-01-07T01:57:39.278Z,98567.66
2023-01-07T02:00:08.861Z,98577.38
2023-01-07T02:02:42.315Z,98567.44
2023-01-07T02:05:11.552Z,98565.81
2023-01-07T02:07:41.271Z,98572.13
2023-01-07T02:10:16.614Z,98573.91
2023-01-07T02:12:57.203Z,98573.72
2023-01-07T02:15:32.929Z,98566.25
2023-01-07T02:18:21.771Z,98551.69
2023-01-07T02:21:02.256Z,98556.16
2023-01-07T02:24:10.380Z,98565.28
2023-01-07T02:27:15.519Z,98564.03
2023-01-07T02:30:31.286Z,98561.97
2023-01-07T02:33:23.853Z,98557.53
2023-01-07T02:36:28.555Z,98561.19
2023-01-07T02:39:19.608Z,98553.72
2023-01-07T02:41:57.469Z,98546.63
2023-01-07T02:44:33.840Z,98544.00
2023-01-07T02:47:09.990Z,98545.63
2023-01-07T02:49:39.603Z,98547.41
2023-01-07T02:52:23.147Z,98543.19
2023-01-07T02:54:56.784Z,98544.00
2023-01-07T02:57:57.703Z,98554.50
2023-01-07T03:00:53.938Z,98547.66
2023-01-07T03:03:33.366Z,98547.88
2023-01-07T03:06:14.180Z,98547.06
2023-01-07T03:08:58.855Z,98546.03
2023-01-07T03:11:33.496Z,98539.19
2023-01-07T03:14:08.211Z,98531.28
2023-01-07T03:16:40.283Z,98532.09
2023-01-07T03:19:13.223Z,98527.03
2023-01-07T03:21:42.691Z,98512.88
2023-01-07T03:24:10.975Z,98502.34
2023-01-07T03:26:44.440Z,98502.34
2023-01-07T03:29:15.793Z,98514.47
2023-01-07T03:31:51.047Z,98504.75
2023-01-07T03:34:23.946Z,98499.72
2023-01-07T03:36:59.410Z,98501.53
2023-01-07T03:39:33.025Z,98501.31
2023-01-07T03:42:18.637Z,98486.56
2023-01-07T03:44:46.866Z,98477.03
2023-01-07T03:47:15.106Z,98489.38
2023-01-07T03:49:43.259Z,98484.13
2023-01-07T03:52:12.913Z,98478.06
2023-01-07T03:54:41.171Z,98470.97
2023-01-07T03:57:09.352Z,98463.88
2023-01-07T03:59:37.498Z,98451.75
2023-01-07T04:02:06.450Z,98437.56
2023-01-07T04:04:34.892Z,98442.81
2023-01-07T04:07:03.083Z,98431.47
2023-01-07T04:09:32.562Z,98426.22
2023-01-07T04:12:00.700Z,98420.97
2023-01-07T04:14:28.728Z,98411.22
2023-01-07T04:16:56.837Z,98407.81
2023-01-07T04:19:25.059Z,98404.16
2023-01-07T04:21:53.176Z,98410.66
2023-01-07T04:24:21.293Z,98408.47
2023-01-07T04:26:50.919Z,98394.88
2023-01-07T04:29:20.956Z,98402.78
2023-01-07T04:31:50.367Z,98380.91
2023-01-07T04:34:18.563Z,98386.97
2023-01-07T04:36:46.695Z,98387.22
2023-01-07T04:39:15.143Z,98369.59
2023-01-07T04:41:43.272Z,98371.63
2023-01-07T04:44:13.086Z,98370.63
2023-01-07T04:46:41.205Z,98361.09
2023-01-07T04:49:09.476Z,98373.69
2023-01-07T04:51:37.718Z,98370.81
2023-01-07T04:54:05.961Z,98363.97
2023-01-07T04:56:34.212Z,98368.00
2023-01-07T04:59:02.352Z,98363.72
2023-01-07T05:01:32.803Z,98357.91
2023-01-07T05:04:01.361Z,98346.34
2023-01-07T05:06:29.457Z,98349.22
2023-01-07T05:08:57.692Z,98360.84
2023-01-07T05:11:25.906Z,98341.38
2023-01-07T05:13:54.117Z,98357.31
2023-01-07T05:16:22.297Z,98353.06
2023-01-07T05:18:51.789Z,98346.22
2023-01-07T05:21:19.991Z,98338.69
2023-01-07T05:23:48.336Z,98339.72
2023-01-07T05:26:17.020Z,98354.69
2023-01-07T05:28:45.063Z,98338.88
2023-01-07T05:31:13.266Z,98350.69
2023-01-07T05:33:41.435Z,98347.47
2023-01-07T05:36:11.077Z,98337.09
2023-01-07T05:38:39.260Z,98333.06
2023-01-07T05:41:08.541Z,98341.09
2023-01-07T05:43:36.799Z,98352.66
2023-01-07T05:46:05.449Z,98365.38
2023-01-07T05:48:33.736Z,98352.41
2023-01-07T05:51:01.882Z,98361.69
2023-01-07T05:53:31.371Z,98359.06
2023-01-07T05:56:00.717Z,98349.91
2023-01-07T05:58:29.320Z,98353.00
2023-01-07T06:00:57.745Z,98364.75
2023-01-07T06:03:26.210Z,98366.97
2023-01-07T06:05:54.519Z,98373.81
2023-01-07T06:08:22.662Z,98383.78
2023-01-07T06:10:52.457Z,98374.25
2023-01-07T06:13:20.605Z,98383.78
2023-01-07T06:15:48.696Z,98388.22
2023-01-07T06:18:16.849Z,98386.41
2023-01-07T06:20:45.088Z,98373.25
2023-01-07T06:23:13.252Z,98370.03
2023-01-07T06:25:41.453Z,98358.81
2023-01-07T06:28:11.006Z,98347.47
2023-01-07T06:30:39.179Z,98353.31
2023-01-07T06:33:07.656Z,98367.25
2023-01-07T06:35:35.760Z,98361.56
2023-01-07T06:38:03.901Z,98366.84
2023-01-07T06:40:32.421Z,98381.59
2023-01-07T06:43:00.557Z,98389.47
2023-01-07T06:45:30.030Z,98373.69
2023-01-07T06:47:58.657Z,98382.63
2023-01-07T06:50:27.039Z,98384.88
2023-01-07T06:52:56.932Z,98382.25
2023-01-07T06:55:25.133Z,98391.16
2023-01-07T06:57:53.351Z,98399.88
2023-01-07T07:00:21.550Z,98395.63
2023-01-07T07:02:51.251Z,98402.13
2023-01-07T07:05:19.468Z,98405.00
2023-01-07T07:07:47.682Z,98419.16
2023-01-07T07:10:15.815Z,98417.69
2023-01-07T07:12:44.072Z,98411.47
2023-01-07T07:15:12.739Z,98418.44
2023-01-07T07:17:40.834Z,98415.50
2023-01-07T07:20:12.351Z,98419.22
2023-01-07T07:22:45.190Z,98425.13
2023-01-07T07:25:13.799Z,98424.75
2023-01-07T07:27:42.043Z,98426.44
2023-01-07T07:30:11.399Z,98443.09
2023-01-07T07:32:39.568Z,98433.00
2023-01-07T07:35:08.509Z,98443.97
2023-01-07T07:37:38.296Z,98446.44
2023-01-07T07:40:09.166Z,98444.47
2023-01-07T07:43:09.342Z,98440.44
2023-01-07T07:45:26.957Z,98438.66
2023-01-07T07:47:55.089Z,98447.78
2023-01-07T07:50:23.417Z,98447.38
2023-01-07T07:52:52.933Z,98447.63
2023-01-07T07:55:26.447Z,98453.72
2023-01-07T07:57:55.390Z,98459.22
2023-01-07T08:00:24.037Z,98465.75
2023-01-07T08:02:52.306Z,98464.50
2023-01-07T08:05:20.626Z,98469.38
2023-01-07T08:07:48.809Z,98477.06
2023-01-07T08:10:18.657Z,98476.28
2023-01-07T08:12:47.121Z,98466.41
2023-01-07T08:15:15.291Z,98475.53
2023-01-07T08:17:43.604Z,98472.09
2023-01-07T08:20:13.142Z,98469.50
2023-01-07T08:22:41.479Z,98488.28
2023-01-07T08:25:10.849Z,98480.06
2023-01-07T08:27:40.424Z,98496.41
2023-01-07T08:30:09.678Z,98486.91
2023-01-07T08:32:38.786Z,98496.84
2023-01-07T08:35:08.046Z,98481.88
2023-01-07T08:37:36.274Z,98500.44
2023-01-07T08:40:05.976Z,98509.13
2023-01-07T08:42:34.305Z,98510.53
2023-01-07T08:45:04.222Z,98513.38
2023-01-07T08:47:32.357Z,98508.13
2023-01-07T08:50:01.129Z,98516.00
2023-01-07T08:52:29.387Z,98517.44
2023-01-07T08:54:57.689Z,98522.88
2023-01-07T08:57:25.954Z,98518.47
2023-01-07T08:59:54.000Z,98509.56
2023-01-07T09:02:23.613Z,98509.75
2023-01-07T09:04:51.770Z,98504.72
2023-01-07T09:07:19.975Z,98511.81
2023-01-07T09:09:48.188Z,98505.97
2023-01-07T09:12:16.233Z,98498.09
2023-01-07T09:14:44.401Z,98505.19
2023-01-07T09:17:12.643Z,98510.22
2023-01-07T09:19:42.255Z,98515.69
2023-01-07T09:22:10.436Z,98511.22
2023-01-07T09:24:38.726Z,98520.94
2023-01-07T09:27:06.919Z,98506.16
2023-01-07T09:29:38.161Z,98501.88
2023-01-07T09:32:06.512Z,98502.88
2023-01-07T09:34:38.610Z,98497.59
2023-01-07T09:37:08.407Z,98483.25
2023-01-07T09:39:36.565Z,98482.00
2023-01-07T09:42:12.844Z,98478.75
2023-01-07T09:44:56.061Z,98470.00
2023-01-07T09:47:27.146Z,98471.00
2023-01-07T09:49:58.870Z,98480.47
2023-01-07T09:52:36.144Z,98478.59
2023-01-07T09:55:15.813Z,98472.69
2023-01-07T09:57:44.515Z,98459.56
2023-01-07T10:00:17.748Z,98457.97
2023-01-07T10:02:59.047Z,98444.25
2023-01-07T10:05:35.308Z,98437.38
2023-01-07T10:08:31.900Z,98423.00
2023-01-07T10:11:09.153Z,98417.09
2023-01-07T10:13:59.974Z,98426.72
2023-01-07T10:16:34.860Z,98405.69
2023-01-07T10:19:12.824Z,98403.56
2023-01-07T10:21:44.288Z,98398.81
2023-01-07T10:24:17.729Z,98395.41
2023-01-07T10:26:51.065Z,98388.03
2023-01-07T10:29:24.049Z,98390.00
2023-01-07T10:31:56.376Z,98374.16
2023-01-07T10:34:30.809Z,98364.50
2023-01-07T10:37:03.569Z,98365.25
2023-01-07T10:39:45.273Z,98366.56
2023-01-07T10:42:15.734Z,98359.94
2023-01-07T10:45:16.214Z,98357.47
2023-01-07T10:47:57.401Z,98357.72
2023-01-07T10:50:48.352Z,98360.72
2023-01-07T10:53:27.316Z,98352.84
2023-01-07T10:56:06.744Z,98328.56
2023-01-07T10:58:40.573Z,98306.34
2023-01-07T11:01:10.141Z,98308.75
2023-01-07T11:03:40.284Z,98324.06
2023-01-07T11:06:15.728Z,98267.78
2023-01-07T11:08:44.598Z,98276.47
2023-01-07T11:11:17.660Z,98266.19
2023-01-07T11:13:55.703Z,98263.88
2023-01-07T11:16:28.841Z,98261.59
2023-01-07T11:19:01.919Z,98247.56
2023-01-07T11:21:43.384Z,98253.09
2023-01-07T11:24:35.212Z,98239.56
2023-01-07T11:27:15.485Z,98247.28
2023-01-07T11:29:46.255Z,98252.78
2023-01-07T11:32:22.086Z,98269.00
2023-01-07T11:34:56.570Z,98279.66
2023-01-07T11:37:36.338Z,98287.69
2023-01-07T11:40:19.147Z,98292.75
2023-01-07T11:42:54.689Z,98305.19
2023-01-07T11:45:25.523Z,98309.44
2023-01-07T11:48:08.675Z,98320.00
2023-01-07T11:50:39.346Z,98318.97
2023-01-07T11:53:23.661Z,98326.88
2023-01-07T11:56:00.816Z,98348.38
2023-01-07T11:58:32.418Z,98344.50
2023-01-07T12:01:15.934Z,98361.03
2023-01-07T12:03:47.310Z,98363.44
2023-01-07T12:06:20.381Z,98361.03
2023-01-07T12:08:55.314Z,98348.00
2023-01-07T12:11:25.588Z,98343.22
2023-01-07T12:13:55.446Z,98339.63
2023-01-07T12:16:29.566Z,98332.41
2023-01-07T12:19:15.158Z,98325.09
2023-01-07T12:21:53.929Z,98309.28
2023-01-07T12:25:00.952Z,98319.09
2023-01-07T12:27:42.553Z,98308.38
2023-01-07T12:30:28.080Z,98314.31
2023-01-07T12:33:09.467Z,98313.28
2023-01-07T12:35:42.754Z,98309.06
2023-01-07T12:38:15.842Z,98312.00
2023-01-07T12:40:48.427Z,98324.25
2023-01-07T12:43:22.786Z,98320.13
2023-01-07T12:45:55.864Z,98315.00
2023-01-07T12:48:32.060Z,98302.88
2023-01-07T12:51:03.013Z,98303.19
2023-01-07T12:53:37.821Z,98294.41
2023-01-07T12:56:13.209Z,98294.41
2023-01-07T12:58:50.414Z,98294.25
2023-01-07T13:01:27.113Z,98298.97
2023-01-07T13:04:09.483Z,98276.78
2023-01-07T13:06:45.932Z,98284.75
2023-01-07T13:09:22.589Z,98293.13
2023-01-07T13:12:42.259Z,98294.50
2023-01-07T13:15:05.063Z,98289.66
2023-01-07T13:17:33.504Z,98294.13
2023-01-07T13:20:04.847Z,98284.19
2023-01-07T13:22:36.368Z,98288.88
2023-01-07T13:25:24.419Z,98279.50
2023-01-07T13:28:20.064Z,98285.56
2023-01-07T13:31:01.467Z,98292.47
2023-01-07T13:33:39.275Z,98294.94
2023-01-07T13:36:21.683Z,98290.81
2023-01-07T13:39:20.745Z,98295.56
2023-01-07T13:42:02.764Z,98296.94
2023-01-07T13:44:56.124Z,98296.81
2023-01-07T13:47:28.058Z,98304.47
2023-01-07T13:50:02.876Z,98305.28
2023-01-07T13:52:34.886Z,98310.78
2023-01-07T13:55:04.744Z,98320.63
2023-01-07T13:57:46.484Z,98313.41
2023-01-07T14:00:43.421Z,98310.91
2023-01-07T14:03:44.046Z,98309.50
2023-01-07T14:06:49.137Z,98321.84
2023-01-07T14:09:37.207Z,98314.59
2023-01-07T14:12:51.452Z,98321.75
2023-01-07T14:15:55.340Z,98316.59
2023-01-07T14:18:56.718Z,98316.25
2023-01-07T14:21:50.649Z,98318.31
2023-01-07T14:24:38.957Z,98305.44
2023-01-07T14:27:21.028Z,98299.03
2023-01-07T14:29:52.511Z,98294.56
2023-01-07T14:32:36.656Z,98274.88
2023-01-07T14:35:08.245Z,98282.31
2023-01-07T14:37:38.572Z,98274.06
2023-01-07T14:41:00.322Z,98298.41
2023-01-07T14:44:14.299Z,98300.69
2023-01-07T14:46:54.052Z,98302.16
2023-01-07T14:50:02.541Z,98291.63
2023-01-07T14:52:51.144Z,98299.00
2023-01-07T14:55:42.851Z,98294.56
2023-01-07T14:58:21.176Z,98281.84
2023-01-07T15:01:14.452Z,98280.63
2023-01-07T15:04:21.671Z,98271.47
2023-01-07T15:06:51.790Z,98265.63
2023-01-07T15:09:43.334Z,98258.31
2023-01-07T15:12:37.100Z,98258.13
2023-01-07T15:15:30.462Z,98257.31
2023-01-07T15:17:59.200Z,98250.22
2023-01-07T15:20:40.693Z,98243.53
2023-01-07T15:23:16.666Z,98237.34
2023-01-07T15:25:56.511Z,98249.19
2023-01-07T15:28:36.864Z,98227.00
2023-01-07T15:31:13.979Z,98208.22
2023-01-07T15:34:02.318Z,98190.50
2023-01-07T15:36:33.213Z,98191.84
2023-01-07T15:39:03.667Z,98173.66
2023-01-07T15:41:34.294Z,98174.22
2023-01-07T15:44:04.983Z,98168.31
2023-01-07T15:46:34.035Z,98177.03
2023-01-07T15:49:15.950Z,98163.28
2023-01-07T15:51:48.068Z,98174.81
2023-01-07T15:54:28.341Z,98149.66
2023-01-07T15:57:00.918Z,98150.44
2023-01-07T15:59:32.624Z,98150.44
2023-01-07T16:02:07.392Z,98144.25
2023-01-07T16:04:38.746Z,98120.72
2023-01-07T16:07:15.880Z,98128.78
2023-01-07T16:09:46.280Z,98119.19
2023-01-07T16:12:32.589Z,98096.03
2023-01-07T16:15:02.169Z,98073.84
2023-01-07T16:17:31.676Z,98083.19
2023-01-07T16:20:21.870Z,98089.91
2023-01-07T16:22:52.258Z,98071.75
2023-01-07T16:25:32.403Z,98078.47
2023-01-07T16:28:01.108Z,98067.63
2023-01-07T16:30:29.294Z,98058.94
2023-01-07T16:32:57.982Z,98046.59
2023-01-07T16:35:31.821Z,98053.47
2023-01-07T16:38:03.635Z,98045.00
2023-01-07T16:40:36.279Z,98026.84
2023-01-07T16:43:05.284Z,98041.34
2023-01-07T16:45:35.146Z,98037.34
2023-01-07T16:48:17.962Z,98036.56
2023-01-07T16:50:47.849Z,98042.25
2023-01-07T16:53:26.313Z,98030.94
2023-01-07T16:56:06.762Z,98036.44
2023-01-07T16:58:41.692Z,98039.63
2023-01-07T17:01:11.448Z,98052.38
2023-01-07T17:03:49.052Z,98049.56
2023-01-07T17:06:20.066Z,98043.50
2023-01-07T17:08:53.592Z,98036.63
2023-01-07T17:11:25.717Z,98038.78
2023-01-07T17:13:53.865Z,98018.34
2023-01-07T17:16:31.749Z,98041.19
2023-01-07T17:19:16.536Z,98038.34
2023-01-07T17:21:45.597Z,98054.88
2023-01-07T17:24:51.489Z,98074.66
2023-01-07T17:27:25.637Z,98082.53
2023-01-07T17:29:54.374Z,98083.25
2023-01-07T17:32:24.439Z,98069.09
2023-01-07T17:34:52.622Z,98044.75
2023-01-07T17:37:20.800Z,98035.03
2023-01-07T17:39:51.324Z,98027.03
2023-01-07T17:42:44.680Z,98019.75
2023-01-07T17:45:17.709Z,98001.81
2023-01-07T17:47:46.739Z,97994.00
2023-01-07T17:50:16.379Z,97983.38
2023-01-07T17:52:46.556Z,97975.94
2023-01-07T17:55:16.704Z,97980.41
2023-01-07T17:57:46.450Z,97992.56
2023-01-07T18:00:17.835Z,97995.00
2023-01-07T18:02:46.256Z,97996.38
2023-01-07T18:05:19.106Z,97988.94
2023-01-07T18:07:47.715Z,98001.84
2023-01-07T18:10:17.546Z,97990.97
2023-01-07T18:12:46.740Z,98005.41
2023-01-07T18:15:19.512Z,98043.19
2023-01-07T18:17:47.904Z,98036.19
2023-01-07T18:20:17.005Z,98007.09
2023-01-07T18:22:45.141Z,98022.13
2023-01-07T18:25:18.422Z,98012.44
2023-01-07T18:27:48.520Z,98016.44
2023-01-07T18:30:19.243Z,98008.78
2023-01-07T18:32:48.441Z,98014.25
2023-01-07T18:35:19.246Z,98016.88
2023-01-07T18:37:49.394Z,98010.38
2023-01-07T18:40:17.888Z,98013.69
2023-01-07T18:42:47.581Z,98007.75
2023-01-07T18:45:16.614Z,97984.13
2023-01-07T18:47:46.053Z,97997.25
2023-01-07T18:50:14.679Z,97989.38
2023-01-07T18:52:43.753Z,97997.81
2023-01-07T18:55:12.390Z,97993.41
2023-01-07T18:57:40.583Z,97992.94
2023-01-07T19:00:11.579Z,97990.31
2023-01-07T19:02:40.284Z,97996.59
2023-01-07T19:05:09.156Z,97998.19
2023-01-07T19:07:37.365Z,98002.41
2023-01-07T19:10:06.408Z,97999.00
2023-01-07T19:12:34.788Z,98002.22
2023-01-07T19:15:02.908Z,97991.72
2023-01-07T19:17:32.678Z,98015.91
2023-01-07T19:20:01.057Z,98018.28
2023-01-07T19:22:29.111Z,98015.34
2023-01-07T19:24:57.871Z,98008.50
2023-01-07T19:27:26.029Z,98009.28
2023-01-07T19:29:54.556Z,98014.88
2023-01-07T19:32:22.849Z,98025.75
2023-01-07T19:34:53.199Z,98019.13
2023-01-07T19:37:22.074Z,98033.84
2023-01-07T19:39:50.358Z,98019.13
2023-01-07T19:42:18.507Z,98035.81
2023-01-07T19:44:46.702Z,98053.16
2023-01-07T19:47:16.812Z,98047.66
2023-01-07T19:49:45.447Z,98047.25
2023-01-07T19:52:14.900Z,98050.91
2023-01-07T19:54:43.080Z,98056.72
2023-01-07T19:57:11.396Z,98052.63
2023-01-07T19:59:39.633Z,98052.75
2023-01-07T20:02:07.963Z,98048.66
2023-01-07T20:04:36.210Z,98031.88
2023-01-07T20:07:04.355Z,98059.97
2023-01-07T20:09:34.624Z,98046.28
2023-01-07T20:12:02.938Z,98057.78
2023-01-07T20:14:31.180Z,98043.28
2023-01-07T20:16:59.686Z,98050.56
2023-01-07T20:19:27.891Z,98029.78
2023-01-07T20:21:56.269Z,98047.47
2023-01-07T20:24:24.849Z,98041.06
2023-01-07T20:26:54.866Z,98042.88
2023-01-07T20:29:23.107Z,98040.47
2023-01-07T20:31:51.796Z,98022.75
2023-01-07T20:34:20.138Z,98035.22
2023-01-07T20:36:48.448Z,98023.91
2023-01-07T20:39:16.700Z,98041.50
2023-01-07T20:41:44.881Z,98030.06
2023-01-07T20:44:14.446Z,98020.59
2023-01-07T20:46:42.507Z,98024.94
2023-01-07T20:49:10.855Z,98035.69
2023-01-07T20:51:39.574Z,98015.47
2023-01-07T20:54:08.017Z,98028.59
2023-01-07T20:56:36.372Z,98018.09
2023-01-07T20:59:05.035Z,98028.59
2023-01-07T21:01:35.073Z,98020.50
2023-01-07T21:04:03.332Z,98011.00
2023-01-07T21:06:31.997Z,98028.13
2023-01-07T21:09:00.244Z,98020.25
2023-01-07T21:11:28.494Z,98017.78
2023-01-07T21:13:56.714Z,98023.25
2023-01-07T21:16:25.783Z,98002.59
2023-01-07T21:18:55.550Z,97995.16
2023-01-07T21:21:25.815Z,97995.75
2023-01-07T21:23:55.297Z,98009.00
2023-01-07T21:26:24.918Z,98018.47
2023-01-07T21:28:56.207Z,98024.31
2023-01-07T21:31:24.906Z,98036.44
2023-01-07T21:33:57.427Z,98015.41
2023-01-07T21:36:27.085Z,98033.00
2023-01-07T21:38:57.514Z,98031.19
2023-01-07T21:41:28.130Z,98033.56
2023-01-07T21:43:56.345Z,98014.94
2023-01-07T21:46:24.673Z,98048.75
2023-01-07T21:48:53.128Z,98075.03
2023-01-07T21:51:25.368Z,98072.59
2023-01-07T21:53:56.431Z,98076.41
2023-01-07T21:56:26.580Z,98084.50
2023-01-07T21:58:54.746Z,98076.81
2023-01-07T22:01:28.448Z,98097.41
2023-01-07T22:03:59.073Z,98096.84
2023-01-07T22:06:30.925Z,98111.56
2023-01-07T22:09:00.388Z,98098.66
2023-01-07T22:11:29.293Z,98109.38
2023-01-07T22:14:00.145Z,98094.66
2023-01-07T22:16:30.768Z,98094.88
2023-01-07T22:18:59.616Z,98098.88
2023-01-07T22:21:29.460Z,98125.59
2023-01-07T22:23:57.711Z,98110.63
2023-01-07T22:26:25.912Z,98098.88
2023-01-07T22:28:56.154Z,98115.66
2023-01-07T22:31:25.842Z,98108.56
2023-01-07T22:33:54.643Z,98107.13
2023-01-07T22:36:26.437Z,98106.53
2023-01-07T22:38:58.969Z,98101.88
2023-01-07T22:41:29.320Z,98111.19
2023-01-07T22:44:00.318Z,98105.72
2023-01-07T22:46:32.405Z,98127.56
2023-01-07T22:49:00.786Z,98122.06
2023-01-07T22:51:32.925Z,98135.56
2023-01-07T22:54:03.064Z,98126.91
2023-01-07T22:56:31.677Z,98126.38
2023-01-07T22:58:59.896Z,98145.81
2023-01-07T23:01:28.170Z,98132.16
2023-01-07T23:03:56.852Z,98162.50
2023-01-07T23:06:25.331Z,98145.50
2023-01-07T23:08:53.805Z,98150.97
2023-01-07T23:11:37.326Z,98153.03
2023-01-07T23:14:05.469Z,98168.78
2023-01-07T23:16:36.329Z,98168.78
2023-01-07T23:19:04.638Z,98153.22
2023-01-07T23:21:33.172Z,98173.72
2023-01-07T23:24:01.843Z,98163.44
2023-01-07T23:26:31.623Z,98176.78
2023-01-07T23:29:01.491Z,98188.31
2023-01-07T23:31:29.902Z,98183.88
2023-01-07T23:33:58.158Z,98187.72
2023-01-07T23:36:26.524Z,98187.34
2023-01-07T23:38:55.721Z,98177.63
2023-01-07T23:41:24.526Z,98200.91
2023-01-07T23:43:54.275Z,98197.50
2023-01-07T23:46:25.011Z,98200.13
2023-01-07T23:48:53.162Z,98205.78
2023-01-07T23:51:22.363Z,98200.75
2023-01-07T23:53:51.640Z,98214.84
2023-01-07T23:56:20.411Z,98218.50
2023-01-07T23:58:49.380Z,98227.81
